Details From EDDM - Muenchen Franz-josef Strauss
To LQSA - Sarajevo
Flight Number -
Tags Generated
Created
Modified
Stats Distance 385 nm / 713 km
Max Altitude 0 ft / 0 m
Waypoints 3
Social Downloads 2
Likes 0
Share VATSIM

Download

Looking for another format? Having issues loading an existing format? Contact us
Advertisement - Login to hide

Notes

Generated

Route

EDDM VINCE LQSA

ID Type Via Altitude Latitude Longitude Leg Dist Tot Dist Heading (true) Name
O EDDM APT - 0 ft / 0 m 48.34069˚ 11.75108˚ - 0 nm - -
VINCE FIX - 0 ft / 0 m 44.13097˚ 18.01700˚ 362 nm 362 nm 132° / 136° -
O LQSA APT - 0 ft / 0 m 43.82997˚ 18.31714˚ 22 nm 384 nm 144° / 144° -

Altitude Profile

Advertisement - Login to hide

Weather


0- 5 10 15 20 25 30 35+ Temperature / ° C

Clouds and Precipitation
Forecast for 2018-05-21 18:00 UTC. Updated 2 hours ago

Ground ~20,000 ft ~40,000 ft Winds

EDDM

Details ICAO EDDM (MUC)
Name Muenchen Franz-Josef Strauss
Region Germany - Civil
Timezone Europe/Berlin (UTC+2.0)
Stats Elevation 1,487 ft / 453 m (AMSL)
Location 48.353786° 11.786117°
Runways 2
Magnetic Variation 3.214° E

METAR

EDDM 211820Z 04004KT 320V110 9999 -SHRA FEW040 SCT060CB 17/13 Q1012 RETSRA NOSIG

Decode

TAF

TAF EDDM 211700Z 2118/2224 05006KT CAVOK PROB40 TEMPO 2118/2120 18015G25KT TSRA BKN050CB PROB30 TEMPO 2215/2219 SHRA SCT050TCU

Decode

Departure Runways

ID Width Length Bearing (true) Bearing (mag) Surface Threshold Offset Overrun Length
08L 197 ft / 60 m 13,086 ft / 3,989 m 83.38° 80.17° Concrete 0 ft / 0 m 0 ft / 0 m
08R 197 ft / 60 m 13,086 ft / 3,989 m 83.37° 80.16° Concrete 0 ft / 0 m 0 ft / 0 m
26L 197 ft / 60 m 13,086 ft / 3,989 m 263.41° 260.20° Concrete 0 ft / 0 m 0 ft / 0 m
26R 197 ft / 60 m 13,086 ft / 3,989 m 263.42° 260.21° Concrete 0 ft / 0 m 0 ft / 0 m

LQSA

Details ICAO LQSA (SJJ)
Name Sarajevo
Region Bosnia and Herzegovinia
Timezone Europe/Sarajevo (UTC+2.0)
Stats Elevation 1,708 ft / 521 m (AMSL)
Location 43.824597° 18.331500°
Runways 1
Magnetic Variation 4.269° E

METAR

LQSA 211830Z 35003KT 310V030 9999 FEW010 SCT060 14/14 Q1016 NOSIG

Decode

TAF

TAF LQSA 211700Z 2118/2218 9999 RA FEW005 SCT040 TX24/2212Z TN10/2203Z BECMG 2118/2120 NSW BECMG 2122/2124 3000 BR PROB40 2202/2206 0600 FG BKN004 BECMG 2207/2210 9999 NSW FEW040TCU SCT050 TEMPO 2211/2217 VRB13KT TSRA FEW035CB BKN045

Decode

Destination Runways

ID Width Length Bearing (true) Bearing (mag) Surface Threshold Offset Overrun Length
12 150 ft / 46 m 8,519 ft / 2,597 m 117.41° 113.14° Asphalt 333 ft / 102 m 0 ft / 0 m
30 150 ft / 46 m 8,519 ft / 2,597 m 297.43° 293.16° Asphalt 666 ft / 203 m 0 ft / 0 m

Approach Navaids

Runway Type Ident Frequency Range Bearing (true) Bearing (mag) Slope Elevation
12 Localiser BHS 110.70 MHz 25 nm / 46 km 117.00° 112.73° - 1,709 ft / 521 m (AMSL)
12 Glidescope BHS 110.70 MHz 25 nm / 46 km 117.00° 112.73° 3.20° 1,705 ft / 520 m (AMSL)
12 DME BHS 110.70 MHz 25 nm / 46 km - - - 1,705 ft / 520 m (AMSL)

Popular Alternatives